createdAt,value
2019-02-24T00:04:44.050Z,49.90
2019-02-24T00:09:49.556Z,49.90
2019-02-24T00:14:57.794Z,49.80
2019-02-24T00:20:07.686Z,50.00
2019-02-24T00:25:12.470Z,49.90
2019-02-24T00:30:16.876Z,50.30
2019-02-24T00:35:22.709Z,50.30
2019-02-24T00:40:29.272Z,50.30
2019-02-24T00:45:32.632Z,50.60
2019-02-24T00:50:36.971Z,51.10
2019-02-24T00:55:40.771Z,51.00
2019-02-24T01:00:44.526Z,51.80
2019-02-24T01:05:47.873Z,52.50
2019-02-24T01:10:53.490Z,51.70
2019-02-24T01:15:57.769Z,52.00
2019-02-24T01:21:03.628Z,52.30
2019-02-24T01:26:07.138Z,52.20
2019-02-24T01:31:10.472Z,52.50
2019-02-24T01:36:14.910Z,52.50
2019-02-24T01:41:22.754Z,52.70
2019-02-24T01:46:27.321Z,52.40
2019-02-24T01:51:30.894Z,52.40
2019-02-24T01:56:37.166Z,52.00
2019-02-24T02:01:41.809Z,51.90
2019-02-24T02:06:45.200Z,51.90
2019-02-24T02:11:50.796Z,51.90
2019-02-24T02:16:54.963Z,51.80
2019-02-24T02:21:58.355Z,52.40
2019-02-24T02:27:03.679Z,51.90
2019-02-24T02:32:09.923Z,51.80
2019-02-24T02:37:19.013Z,52.30
2019-02-24T02:42:22.948Z,52.20
2019-02-24T02:47:26.423Z,52.30
2019-02-24T02:52:30.364Z,52.50
2019-02-24T02:57:36.941Z,52.50
2019-02-24T03:02:43.295Z,52.70
2019-02-24T03:07:49.833Z,52.80
2019-02-24T03:12:53.191Z,53.00
2019-02-24T03:17:56.955Z,53.30
2019-02-24T03:23:01.128Z,53.50
2019-02-24T03:28:04.761Z,53.40
2019-02-24T03:33:08.139Z,53.60
2019-02-24T03:38:12.421Z,53.40
2019-02-24T03:43:15.783Z,53.40
2019-02-24T03:48:21.230Z,53.70
2019-02-24T03:53:25.206Z,53.70
2019-02-24T03:58:32.013Z,53.80
2019-02-24T04:03:37.003Z,54.00
2019-02-24T04:08:41.511Z,53.90
2019-02-24T04:13:45.169Z,54.00
2019-02-24T04:18:50.466Z,53.90
2019-02-24T04:23:53.890Z,54.00
2019-02-24T04:28:58.120Z,54.00
2019-02-24T04:34:03.033Z,54.10
2019-02-24T04:39:06.435Z,53.90
2019-02-24T04:44:10.562Z,53.70
2019-02-24T04:49:14.309Z,53.70
2019-02-24T04:54:18.791Z,53.70
2019-02-24T04:59:22.516Z,53.60
2019-02-24T05:04:26.680Z,53.70
2019-02-24T05:09:31.129Z,53.60
2019-02-24T05:14:35.101Z,53.80
2019-02-24T05:19:38.922Z,53.80
2019-02-24T05:24:42.301Z,53.90
2019-02-24T05:29:46.452Z,53.60
2019-02-24T05:34:53.160Z,53.70
2019-02-24T05:39:56.549Z,53.60
2019-02-24T05:44:59.997Z,53.60
2019-02-24T05:50:03.643Z,53.50
2019-02-24T05:55:07.901Z,53.40
2019-02-24T06:00:12.150Z,53.80
2019-02-24T06:05:16.447Z,53.50
2019-02-24T06:10:21.290Z,53.50
2019-02-24T06:15:24.676Z,53.80
2019-02-24T06:20:29.414Z,53.90
2019-02-24T06:25:35.748Z,54.00
2019-02-24T06:30:41.532Z,54.00
2019-02-24T06:35:46.633Z,54.10
2019-02-24T06:40:50.786Z,54.10
2019-02-24T06:45:54.579Z,54.30
2019-02-24T06:51:02.758Z,54.20
2019-02-24T06:56:06.671Z,54.20
2019-02-24T07:01:10.059Z,54.50
2019-02-24T07:06:13.767Z,54.60
2019-02-24T07:11:17.513Z,54.50
2019-02-24T07:16:22.015Z,54.30
2019-02-24T07:21:28.499Z,54.30
2019-02-24T07:26:34.386Z,54.30
2019-02-24T07:31:42.301Z,54.20
2019-02-24T07:36:47.891Z,54.10
2019-02-24T07:41:54.305Z,53.40
2019-02-24T07:47:05.402Z,53.40
2019-02-24T07:52:12.917Z,53.60
2019-02-24T07:57:17.303Z,53.30
2019-02-24T08:02:22.206Z,53.20
2019-02-24T08:07:28.326Z,53.30
2019-02-24T08:18:06.027Z,53.20
2019-02-24T08:23:17.757Z,53.10
2019-02-24T08:28:25.950Z,52.20
2019-02-24T08:33:31.341Z,52.00
2019-02-24T08:38:35.113Z,52.00
2019-02-24T08:43:48.494Z,52.30
2019-02-24T08:48:56.760Z,53.00
2019-02-24T08:59:25.615Z,51.80
2019-02-24T09:04:30.362Z,50.90
2019-02-24T09:09:34.336Z,50.50
2019-02-24T09:14:38.643Z,49.30
2019-02-24T09:19:42.083Z,49.70
2019-02-24T09:24:54.393Z,49.40
2019-02-24T09:29:58.186Z,49.00
2019-02-24T09:35:02.515Z,48.40
2019-02-24T09:45:44.857Z,44.20
2019-02-24T09:50:48.817Z,41.20
2019-02-24T09:55:59.252Z,40.20
2019-02-24T10:01:10.246Z,40.00
2019-02-24T10:06:14.477Z,39.70
2019-02-24T10:11:32.556Z,38.30
2019-02-24T10:16:39.070Z,37.30
2019-02-24T10:21:51.828Z,36.80
2019-02-24T10:32:21.509Z,36.10
2019-02-24T10:37:30.000Z,37.60
2019-02-24T10:48:13.735Z,36.20
2019-02-24T10:53:12.987Z,33.10
2019-02-24T10:58:18.801Z,31.10
2019-02-24T11:03:24.415Z,29.40
2019-02-24T11:08:30.033Z,29.90
2019-02-24T11:13:38.539Z,30.00
2019-02-24T11:18:44.299Z,28.90
2019-02-24T11:23:48.978Z,28.20
2019-02-24T11:28:55.633Z,28.30
2019-02-24T11:34:08.732Z,28.60
2019-02-24T11:39:17.664Z,28.20
2019-02-24T11:44:39.702Z,26.40
2019-02-24T11:49:43.293Z,25.40
2019-02-24T11:54:53.559Z,26.30
2019-02-24T11:59:57.939Z,28.00
2019-02-24T12:05:01.358Z,28.70
2019-02-24T12:10:07.910Z,28.60
2019-02-24T12:15:12.648Z,28.30
2019-02-24T12:20:20.379Z,29.70
2019-02-24T12:25:25.515Z,31.50
2019-02-24T12:30:32.384Z,32.50
2019-02-24T12:35:38.449Z,34.20
2019-02-24T12:40:45.617Z,35.80
2019-02-24T12:45:49.045Z,36.80
2019-02-24T12:50:55.420Z,36.70
2019-02-24T12:56:03.526Z,37.20
2019-02-24T13:01:07.168Z,37.10
2019-02-24T13:06:11.131Z,37.50
2019-02-24T13:11:19.224Z,38.00
2019-02-24T13:16:24.219Z,38.90
2019-02-24T13:26:58.019Z,38.90
2019-02-24T13:32:04.851Z,39.50
2019-02-24T13:37:12.221Z,39.90
2019-02-24T13:42:15.555Z,41.00
2019-02-24T13:47:28.442Z,41.20
2019-02-24T13:52:34.522Z,41.50
2019-02-24T13:57:39.931Z,42.10
2019-02-24T14:02:43.895Z,42.70
2019-02-24T14:07:49.133Z,43.00
2019-02-24T14:12:52.677Z,43.00
2019-02-24T14:17:58.259Z,42.60
2019-02-24T14:23:12.163Z,43.10
2019-02-24T14:28:16.421Z,43.80
2019-02-24T14:33:19.823Z,44.40
2019-02-24T14:38:25.501Z,44.60
2019-02-24T14:43:28.819Z,44.50
2019-02-24T14:48:33.716Z,44.60
2019-02-24T14:53:37.088Z,45.30
2019-02-24T14:58:41.051Z,45.50
2019-02-24T15:03:44.334Z,45.70
2019-02-24T15:08:47.663Z,46.30
2019-02-24T15:13:51.947Z,47.00
2019-02-24T15:24:19.471Z,46.00
2019-02-24T15:29:23.449Z,45.80
2019-02-24T15:34:31.353Z,47.60
2019-02-24T15:39:40.341Z,48.50
2019-02-24T15:44:44.174Z,49.00
2019-02-24T15:49:54.747Z,49.60
2019-02-24T15:54:58.393Z,50.00
2019-02-24T16:00:06.495Z,50.60
2019-02-24T16:05:11.894Z,51.20
2019-02-24T16:10:22.846Z,51.50
2019-02-24T16:15:28.594Z,52.20
2019-02-24T16:20:39.277Z,52.40
2019-02-24T16:25:43.555Z,52.70
2019-02-24T16:30:50.772Z,53.40
2019-02-24T16:35:54.766Z,53.70
2019-02-24T16:40:58.085Z,54.00
2019-02-24T16:46:01.883Z,54.50
2019-02-24T16:51:05.267Z,54.70
2019-02-24T16:56:09.851Z,55.00
2019-02-24T17:01:13.463Z,55.40
2019-02-24T17:06:23.957Z,55.90
2019-02-24T17:11:33.604Z,56.10
2019-02-24T17:16:37.144Z,56.60
2019-02-24T17:21:40.475Z,56.60
2019-02-24T17:26:44.820Z,56.90
2019-02-24T17:31:48.201Z,57.00
2019-02-24T17:36:52.330Z,57.50
2019-02-24T17:41:56.492Z,57.70
2019-02-24T17:46:59.881Z,57.80
2019-02-24T17:52:21.230Z,58.70
2019-02-24T17:57:20.561Z,58.60
2019-02-24T18:02:24.623Z,58.60
2019-02-24T18:07:32.247Z,58.60
2019-02-24T18:12:36.976Z,58.60
2019-02-24T18:17:40.284Z,58.90
2019-02-24T18:22:43.611Z,59.20
2019-02-24T18:27:53.011Z,59.40
2019-02-24T18:32:57.167Z,59.70
2019-02-24T18:38:00.797Z,60.40
2019-02-24T18:43:04.470Z,60.00
2019-02-24T18:48:10.211Z,60.20
2019-02-24T18:53:14.178Z,60.30
2019-02-24T18:58:21.086Z,60.50
2019-02-24T19:03:28.228Z,60.70
2019-02-24T19:08:38.228Z,61.50
2019-02-24T19:13:43.008Z,61.50
2019-02-24T19:18:48.013Z,61.60
2019-02-24T19:23:53.566Z,61.80
2019-02-24T19:28:58.299Z,62.10
2019-02-24T19:34:06.769Z,62.10
2019-02-24T19:39:13.398Z,62.00
2019-02-24T19:44:18.313Z,61.60
2019-02-24T19:54:47.077Z,61.80
2019-02-24T19:59:55.110Z,61.90
2019-02-24T20:04:59.548Z,61.90
2019-02-24T20:10:04.790Z,61.50
2019-02-24T20:15:20.861Z,60.90
2019-02-24T20:20:25.098Z,60.60
2019-02-24T20:25:29.726Z,60.10
2019-02-24T20:30:35.341Z,60.00
2019-02-24T20:35:38.754Z,59.90
2019-02-24T20:40:44.692Z,59.80
2019-02-24T20:45:48.177Z,59.70
2019-02-24T20:50:53.083Z,59.70
2019-02-24T20:55:57.477Z,59.50
2019-02-24T21:01:00.841Z,59.30
2019-02-24T21:06:10.854Z,59.30
2019-02-24T21:17:03.311Z,58.80
2019-02-24T21:22:07.430Z,58.90
2019-02-24T21:27:10.866Z,58.60
2019-02-24T21:32:15.432Z,59.20
2019-02-24T21:37:19.669Z,58.60
2019-02-24T21:42:23.069Z,58.60
2019-02-24T21:47:27.052Z,58.50
2019-02-24T21:52:31.911Z,58.50
2019-02-24T21:57:38.382Z,58.50
2019-02-24T22:02:44.940Z,58.60
2019-02-24T22:07:48.939Z,58.70
2019-02-24T22:12:52.335Z,58.70
2019-02-24T22:17:55.717Z,58.70
2019-02-24T22:22:59.357Z,58.60
2019-02-24T22:28:02.705Z,58.60
2019-02-24T22:33:07.430Z,58.50
2019-02-24T22:38:11.897Z,58.60
2019-02-24T22:43:16.127Z,58.50
2019-02-24T22:48:21.824Z,58.50
2019-02-24T22:53:25.784Z,58.50
2019-02-24T22:58:29.176Z,58.40
2019-02-24T23:03:36.822Z,58.50
2019-02-24T23:08:40.392Z,58.60
2019-02-24T23:13:47.242Z,59.40
2019-02-24T23:18:50.348Z,59.00
2019-02-24T23:23:55.677Z,59.20
2019-02-24T23:29:01.836Z,59.50
2019-02-24T23:34:05.718Z,59.80
2019-02-24T23:39:14.252Z,60.00
2019-02-24T23:44:18.082Z,60.20
2019-02-24T23:49:23.118Z,60.60
2019-02-24T23:54:29.943Z,60.90
2019-02-24T23:59:33.362Z,61.50
